Topsail Beach, North Carolina
Current Conditions -  °F | °C
As of 6:56 AM on Saturday 20 Dec 2014 (Local Time) from KNCA Reporting Station
Overcast Overcast  
Wind Chill: 37°   Ceiling: 9500
Heat Index: 42°   Visibility: 10mi
Dew Point: 36°   Wind: 8mph
Humidity: 79%   Direction: 50°NE
Pressure: 30.24"   Gusts: NA
Location:  34.4895°N, 77.514°W
Report Text: KNCA 201156Z AUTO 05007KT 10SM SCT075 OVC095 06/02 A3024 RMK AO2 SLP244 T00560022 10061 20050 51009
Loading
Personal Weather Stations






























Interactive Weather Map New forecast layout! Learn more

10-Day Weather Forecast

Advertisements
Track Severe Weather on mobile